Halltown, MO (65664)

9:10 PM CST on November 26, 2014 (GMT -0600)
MesoWest I-44 @ MM 60.85 - Halltown MO US MODOT | Change Station
CLOSE
Current Station
Personal Weather Station
Location: Halltown, MO
Elevation: 1263 ft
Nearby Weather Stations

Elev 1263 ft 37.19 °N, 93.59 °W | Updated 496 days ago

Mostly Cloudy
Mostly Cloudy
28 °F
Feels Like 19 °F
N
11
Wind Variable Wind from NW
Gusts 13 mph

Today
High -- | Low -- °F
--% Chance of Precip.
Yesterday
High -- | Low -- °F
Precip. -- in
7:04 AM 4:58 PM
Waxing Crescent, 25% visible
Pressure 30.27 in
Visibility 10.0 miles
Clouds Overcast 2600 ft
Windchill 19 °F
Dew Point 21 °F
Humidity 78%
Rainfall -999.00 in
Snow Depth Not available.
UV 0 out of 12
Pollen 1.60 out of 12
Air Quality Not available.
Flu Activity Not available.
METAR KSGF 270252Z 31016G27KT 10SM OVC026 02/M03 A3024 RMK AO2 PK WND 32027/0248 SLP250 T00221033 51038

More Conditions Fewer Conditions

Pressure 30.27 in
Visibility 10.0 miles
Clouds Overcast 2600 ft
Windchill 19 °F
Dew Point 21 °F
Humidity 78%
Rainfall -999.00 in
Snow Depth Not available.
UV 0 out of 12
Pollen 1.60 out of 12
Air Quality Not available.
Flu Activity Not available.
METAR KSGF 270252Z 31016G27KT 10SM OVC026 02/M03 A3024 RMK AO2 PK WND 32027/0248 SLP250 T00221033 51038

More Conditions Fewer Conditions

10-Day Weather Forecast

Almanac

Astronomy

Nov. 26, 2014 Rise Set
Actual Time
Civil Twilight
Nautical Twilight
Astronomical Twilight
Moon
Length of Visible Light
Length of Day
Tomorrow will be .
, % of the Moon is Illuminated

Today's Extremes

State Highs State Lows

Community

WunderPhotos

Upload Photos

1,773,949 photos uploaded!

WunderBlogs® & News

Nearby

Air Quality

  Air Quality AQ Index Pollutant
Not available.

Snow Depth

Station Depth Elevation

Earthquake Activity

City Distance Mag. Time & Date
Minimum magnitude displayed is 2.5.

Coastal Water Temperatures

Place Temperature

Nearby Weather Stations